sensor_id;sensor_type;location;lat;lon;timestamp;P1;durP1;ratioP1;P2;durP2;ratioP2
2546;SDS011;1283;47.982;7.834;2023-04-01T00:00:46;3.45;;;0.40;;
2546;SDS011;1283;47.982;7.834;2023-04-01T00:03:13;2.05;;;0.40;;
2546;SDS011;1283;47.982;7.834;2023-04-01T00:05:39;1.88;;;0.32;;
2546;SDS011;1283;47.982;7.834;2023-04-01T00:08:06;0.43;;;0.20;;
2546;SDS011;1283;47.982;7.834;2023-04-01T00:10:33;2.33;;;0.50;;
2546;SDS011;1283;47.982;7.834;2023-04-01T00:13:00;1.33;;;0.30;;
2546;SDS011;1283;47.982;7.834;2023-04-01T00:15:26;0.80;;;0.20;;
2546;SDS011;1283;47.982;7.834;2023-04-01T00:17:53;1.95;;;0.28;;
2546;SDS011;1283;47.982;7.834;2023-04-01T00:20:20;0.10;;;0.10;;
2546;SDS011;1283;47.982;7.834;2023-04-01T00:22:46;2.22;;;0.50;;
2546;SDS011;1283;47.982;7.834;2023-04-01T00:25:13;2.35;;;0.50;;
2546;SDS011;1283;47.982;7.834;2023-04-01T00:27:41;2.05;;;0.40;;
2546;SDS011;1283;47.982;7.834;2023-04-01T00:30:08;1.70;;;0.32;;
2546;SDS011;1283;47.982;7.834;2023-04-01T00:32:35;1.75;;;0.47;;
2546;SDS011;1283;47.982;7.834;2023-04-01T00:35:01;2.47;;;0.40;;
2546;SDS011;1283;47.982;7.834;2023-04-01T00:37:28;5.32;;;0.77;;
2546;SDS011;1283;47.982;7.834;2023-04-01T00:39:55;2.75;;;0.55;;
2546;SDS011;1283;47.982;7.834;2023-04-01T00:42:21;3.05;;;0.55;;
2546;SDS011;1283;47.982;7.834;2023-04-01T00:44:51;6.25;;;0.93;;
2546;SDS011;1283;47.982;7.834;2023-04-01T00:47:18;5.75;;;0.63;;
2546;SDS011;1283;47.982;7.834;2023-04-01T00:49:46;3.60;;;1.02;;
2546;SDS011;1283;47.982;7.834;2023-04-01T00:52:15;4.05;;;1.08;;
2546;SDS011;1283;47.982;7.834;2023-04-01T00:54:44;4.82;;;1.02;;
2546;SDS011;1283;47.982;7.834;2023-04-01T00:57:13;6.82;;;1.55;;
2546;SDS011;1283;47.982;7.834;2023-04-01T00:59:42;4.90;;;0.88;;
2546;SDS011;1283;47.982;7.834;2023-04-01T01:02:12;7.95;;;1.02;;
2546;SDS011;1283;47.982;7.834;2023-04-01T01:04:40;5.35;;;1.30;;
2546;SDS011;1283;47.982;7.834;2023-04-01T01:07:11;8.18;;;1.77;;
2546;SDS011;1283;47.982;7.834;2023-04-01T01:09:42;5.93;;;0.88;;
2546;SDS011;1283;47.982;7.834;2023-04-01T01:12:12;9.55;;;1.10;;
2546;SDS011;1283;47.982;7.834;2023-04-01T01:14:45;3.80;;;0.98;;
2546;SDS011;1283;47.982;7.834;2023-04-01T01:17:21;11.52;;;1.27;;
2546;SDS011;1283;47.982;7.834;2023-04-01T01:19:59;7.68;;;1.20;;
2546;SDS011;1283;47.982;7.834;2023-04-01T01:22:57;12.18;;;1.40;;
2546;SDS011;1283;47.982;7.834;2023-04-01T01:25:34;9.88;;;1.23;;
2546;SDS011;1283;47.982;7.834;2023-04-01T01:28:12;8.55;;;1.30;;
2546;SDS011;1283;47.982;7.834;2023-04-01T01:30:48;6.78;;;1.42;;
2546;SDS011;1283;47.982;7.834;2023-04-01T01:33:24;13.10;;;1.67;;
2546;SDS011;1283;47.982;7.834;2023-04-01T01:35:57;12.30;;;1.38;;
2546;SDS011;1283;47.982;7.834;2023-04-01T01:38:26;9.30;;;1.40;;
2546;SDS011;1283;47.982;7.834;2023-04-01T01:40:55;5.43;;;1.23;;
2546;SDS011;1283;47.982;7.834;2023-04-01T01:43:23;8.27;;;1.15;;
2546;SDS011;1283;47.982;7.834;2023-04-01T01:45:52;11.43;;;2.30;;
2546;SDS011;1283;47.982;7.834;2023-04-01T01:48:20;10.90;;;2.20;;
2546;SDS011;1283;47.982;7.834;2023-04-01T01:50:47;15.15;;;1.30;;
2546;SDS011;1283;47.982;7.834;2023-04-01T01:53:16;13.07;;;1.77;;
2546;SDS011;1283;47.982;7.834;2023-04-01T01:55:43;8.48;;;1.40;;
2546;SDS011;1283;47.982;7.834;2023-04-01T01:58:11;16.55;;;1.90;;
2546;SDS011;1283;47.982;7.834;2023-04-01T02:00:39;14.40;;;1.95;;
2546;SDS011;1283;47.982;7.834;2023-04-01T02:03:07;10.48;;;1.17;;
2546;SDS011;1283;47.982;7.834;2023-04-01T02:05:33;11.52;;;2.05;;
2546;SDS011;1283;47.982;7.834;2023-04-01T02:08:02;11.23;;;1.35;;
2546;SDS011;1283;47.982;7.834;2023-04-01T02:10:34;7.20;;;1.27;;
2546;SDS011;1283;47.982;7.834;2023-04-01T02:13:09;5.53;;;1.90;;
2546;SDS011;1283;47.982;7.834;2023-04-01T02:20:33;18.38;;;2.78;;
2546;SDS011;1283;47.982;7.834;2023-04-01T02:23:01;12.57;;;1.80;;
2546;SDS011;1283;47.982;7.834;2023-04-01T02:25:29;4.20;;;1.25;;
2546;SDS011;1283;47.982;7.834;2023-04-01T02:27:58;11.80;;;1.80;;
2546;SDS011;1283;47.982;7.834;2023-04-01T02:30:25;11.02;;;1.50;;
2546;SDS011;1283;47.982;7.834;2023-04-01T02:32:53;8.02;;;1.30;;
2546;SDS011;1283;47.982;7.834;2023-04-01T02:35:21;10.07;;;1.67;;
2546;SDS011;1283;47.982;7.834;2023-04-01T02:37:48;8.32;;;1.50;;
2546;SDS011;1283;47.982;7.834;2023-04-01T02:40:16;10.20;;;1.60;;
2546;SDS011;1283;47.982;7.834;2023-04-01T02:42:43;9.95;;;1.40;;
2546;SDS011;1283;47.982;7.834;2023-04-01T02:45:11;9.82;;;1.42;;
2546;SDS011;1283;47.982;7.834;2023-04-01T02:47:38;7.57;;;1.05;;
2546;SDS011;1283;47.982;7.834;2023-04-01T02:50:05;8.43;;;1.42;;
2546;SDS011;1283;47.982;7.834;2023-04-01T02:52:33;3.88;;;0.88;;
2546;SDS011;1283;47.982;7.834;2023-04-01T02:54:59;4.50;;;0.90;;
2546;SDS011;1283;47.982;7.834;2023-04-01T02:57:26;5.30;;;1.17;;
2546;SDS011;1283;47.982;7.834;2023-04-01T02:59:52;12.75;;;1.42;;
2546;SDS011;1283;47.982;7.834;2023-04-01T03:02:20;10.30;;;1.20;;
2546;SDS011;1283;47.982;7.834;2023-04-01T03:04:46;20.73;;;1.60;;
2546;SDS011;1283;47.982;7.834;2023-04-01T03:07:13;11.63;;;1.65;;
2546;SDS011;1283;47.982;7.834;2023-04-01T03:09:39;14.93;;;1.70;;
2546;SDS011;1283;47.982;7.834;2023-04-01T03:12:06;12.70;;;1.75;;
2546;SDS011;1283;47.982;7.834;2023-04-01T03:14:32;10.23;;;1.67;;
2546;SDS011;1283;47.982;7.834;2023-04-01T03:16:59;12.40;;;1.85;;
2546;SDS011;1283;47.982;7.834;2023-04-01T03:19:26;12.88;;;1.55;;
2546;SDS011;1283;47.982;7.834;2023-04-01T03:21:53;12.13;;;1.65;;
2546;SDS011;1283;47.982;7.834;2023-04-01T03:24:19;16.73;;;1.58;;
2546;SDS011;1283;47.982;7.834;2023-04-01T03:26:46;8.80;;;1.33;;
2546;SDS011;1283;47.982;7.834;2023-04-01T03:29:12;17.27;;;2.80;;
2546;SDS011;1283;47.982;7.834;2023-04-01T03:31:40;8.52;;;1.52;;
2546;SDS011;1283;47.982;7.834;2023-04-01T03:34:07;13.73;;;1.63;;
2546;SDS011;1283;47.982;7.834;2023-04-01T03:36:35;7.75;;;0.95;;
2546;SDS011;1283;47.982;7.834;2023-04-01T03:39:01;12.18;;;1.13;;
2546;SDS011;1283;47.982;7.834;2023-04-01T03:41:29;9.02;;;1.02;;
2546;SDS011;1283;47.982;7.834;2023-04-01T03:43:56;3.70;;;1.10;;
2546;SDS011;1283;47.982;7.834;2023-04-01T03:46:22;7.72;;;0.80;;
2546;SDS011;1283;47.982;7.834;2023-04-01T03:48:49;4.72;;;0.68;;
2546;SDS011;1283;47.982;7.834;2023-04-01T03:51:15;4.70;;;0.82;;
2546;SDS011;1283;47.982;7.834;2023-04-01T03:53:43;5.18;;;0.85;;
2546;SDS011;1283;47.982;7.834;2023-04-01T03:56:09;5.53;;;0.88;;
2546;SDS011;1283;47.982;7.834;2023-04-01T03:58:36;7.13;;;1.13;;
2546;SDS011;1283;47.982;7.834;2023-04-01T04:01:12;4.15;;;1.15;;
2546;SDS011;1283;47.982;7.834;2023-04-01T04:03:39;3.17;;;0.50;;
2546;SDS011;1283;47.982;7.834;2023-04-01T04:06:07;8.70;;;0.75;;
2546;SDS011;1283;47.982;7.834;2023-04-01T04:08:37;5.97;;;0.60;;
2546;SDS011;1283;47.982;7.834;2023-04-01T04:11:04;5.57;;;0.93;;
2546;SDS011;1283;47.982;7.834;2023-04-01T04:13:31;4.28;;;1.00;;
2546;SDS011;1283;47.982;7.834;2023-04-01T04:15:57;6.57;;;0.90;;
2546;SDS011;1283;47.982;7.834;2023-04-01T04:18:24;6.35;;;1.55;;
2546;SDS011;1283;47.982;7.834;2023-04-01T04:20:50;4.70;;;1.33;;
2546;SDS011;1283;47.982;7.834;2023-04-01T04:23:17;6.53;;;1.08;;
2546;SDS011;1283;47.982;7.834;2023-04-01T04:25:52;8.68;;;2.08;;
2546;SDS011;1283;47.982;7.834;2023-04-01T04:28:21;5.72;;;0.80;;
2546;SDS011;1283;47.982;7.834;2023-04-01T04:30:48;6.28;;;0.93;;
2546;SDS011;1283;47.982;7.834;2023-04-01T04:33:14;5.97;;;0.95;;
2546;SDS011;1283;47.982;7.834;2023-04-01T04:35:41;6.22;;;1.52;;
2546;SDS011;1283;47.982;7.834;2023-04-01T04:38:07;7.35;;;1.40;;
2546;SDS011;1283;47.982;7.834;2023-04-01T04:40:35;10.48;;;1.83;;
2546;SDS011;1283;47.982;7.834;2023-04-01T04:43:02;6.10;;;1.23;;
2546;SDS011;1283;47.982;7.834;2023-04-01T04:45:30;8.80;;;1.70;;
2546;SDS011;1283;47.982;7.834;2023-04-01T04:47:56;5.72;;;0.70;;
2546;SDS011;1283;47.982;7.834;2023-04-01T04:50:23;8.00;;;0.90;;
2546;SDS011;1283;47.982;7.834;2023-04-01T04:52:50;9.52;;;1.10;;
2546;SDS011;1283;47.982;7.834;2023-04-01T04:55:17;8.73;;;0.98;;
2546;SDS011;1283;47.982;7.834;2023-04-01T04:57:43;9.27;;;1.23;;
2546;SDS011;1283;47.982;7.834;2023-04-01T05:00:10;7.75;;;1.20;;
2546;SDS011;1283;47.982;7.834;2023-04-01T05:02:38;8.40;;;1.55;;
2546;SDS011;1283;47.982;7.834;2023-04-01T05:05:05;4.95;;;0.90;;
2546;SDS011;1283;47.982;7.834;2023-04-01T05:07:32;7.97;;;1.13;;
2546;SDS011;1283;47.982;7.834;2023-04-01T05:09:59;6.55;;;1.20;;
2546;SDS011;1283;47.982;7.834;2023-04-01T05:12:25;4.05;;;0.88;;
2546;SDS011;1283;47.982;7.834;2023-04-01T05:14:52;6.35;;;1.27;;
2546;SDS011;1283;47.982;7.834;2023-04-01T05:17:18;8.90;;;1.00;;
2546;SDS011;1283;47.982;7.834;2023-04-01T05:19:46;12.57;;;1.42;;
2546;SDS011;1283;47.982;7.834;2023-04-01T05:22:12;7.95;;;1.40;;
2546;SDS011;1283;47.982;7.834;2023-04-01T05:24:39;5.50;;;0.90;;
2546;SDS011;1283;47.982;7.834;2023-04-01T05:27:05;5.15;;;0.93;;
2546;SDS011;1283;47.982;7.834;2023-04-01T05:29:32;6.07;;;1.10;;
2546;SDS011;1283;47.982;7.834;2023-04-01T05:31:58;8.65;;;0.88;;
2546;SDS011;1283;47.982;7.834;2023-04-01T05:34:25;7.80;;;1.10;;
2546;SDS011;1283;47.982;7.834;2023-04-01T05:36:52;5.93;;;0.88;;
2546;SDS011;1283;47.982;7.834;2023-04-01T05:39:19;2.88;;;0.70;;
2546;SDS011;1283;47.982;7.834;2023-04-01T05:41:45;6.90;;;0.75;;
2546;SDS011;1283;47.982;7.834;2023-04-01T05:44:12;7.55;;;1.05;;
2546;SDS011;1283;47.982;7.834;2023-04-01T05:46:38;5.20;;;1.02;;
2546;SDS011;1283;47.982;7.834;2023-04-01T05:49:05;6.45;;;1.00;;
2546;SDS011;1283;47.982;7.834;2023-04-01T05:51:31;4.90;;;0.90;;
2546;SDS011;1283;47.982;7.834;2023-04-01T05:53:59;3.42;;;0.82;;
2546;SDS011;1283;47.982;7.834;2023-04-01T05:56:25;11.13;;;1.55;;
2546;SDS011;1283;47.982;7.834;2023-04-01T05:58:53;4.60;;;1.05;;
2546;SDS011;1283;47.982;7.834;2023-04-01T06:01:20;4.25;;;0.68;;
2546;SDS011;1283;47.982;7.834;2023-04-01T06:03:46;2.22;;;0.60;;
2546;SDS011;1283;47.982;7.834;2023-04-01T06:06:13;8.18;;;0.82;;
2546;SDS011;1283;47.982;7.834;2023-04-01T06:08:40;5.50;;;0.82;;
2546;SDS011;1283;47.982;7.834;2023-04-01T06:11:12;7.85;;;0.90;;
2546;SDS011;1283;47.982;7.834;2023-04-01T06:13:50;6.50;;;0.70;;
2546;SDS011;1283;47.982;7.834;2023-04-01T06:16:25;4.60;;;0.75;;
2546;SDS011;1283;47.982;7.834;2023-04-01T06:18:59;9.90;;;1.50;;
2546;SDS011;1283;47.982;7.834;2023-04-01T06:21:35;2.15;;;0.70;;
2546;SDS011;1283;47.982;7.834;2023-04-01T06:24:10;7.50;;;1.20;;
2546;SDS011;1283;47.982;7.834;2023-04-01T06:26:46;6.38;;;0.60;;
2546;SDS011;1283;47.982;7.834;2023-04-01T06:29:24;3.97;;;0.60;;
2546;SDS011;1283;47.982;7.834;2023-04-01T06:31:59;5.32;;;0.98;;
2546;SDS011;1283;47.982;7.834;2023-04-01T06:34:49;7.05;;;1.60;;
2546;SDS011;1283;47.982;7.834;2023-04-01T06:37:38;3.63;;;0.68;;
2546;SDS011;1283;47.982;7.834;2023-04-01T06:40:19;6.47;;;0.70;;
2546;SDS011;1283;47.982;7.834;2023-04-01T06:42:59;7.78;;;0.90;;
2546;SDS011;1283;47.982;7.834;2023-04-01T06:45:29;4.65;;;0.70;;
2546;SDS011;1283;47.982;7.834;2023-04-01T06:48:10;2.72;;;0.60;;
2546;SDS011;1283;47.982;7.834;2023-04-01T06:50:45;2.45;;;0.70;;
2546;SDS011;1283;47.982;7.834;2023-04-01T06:53:17;4.32;;;0.60;;
2546;SDS011;1283;47.982;7.834;2023-04-01T06:55:47;5.30;;;0.85;;
2546;SDS011;1283;47.982;7.834;2023-04-01T06:58:19;5.38;;;0.52;;
2546;SDS011;1283;47.982;7.834;2023-04-01T07:00:48;3.00;;;0.35;;
2546;SDS011;1283;47.982;7.834;2023-04-01T07:03:16;4.72;;;0.75;;
2546;SDS011;1283;47.982;7.834;2023-04-01T07:05:46;4.95;;;1.33;;
2546;SDS011;1283;47.982;7.834;2023-04-01T07:08:13;2.22;;;0.40;;
2546;SDS011;1283;47.982;7.834;2023-04-01T07:10:44;3.20;;;1.05;;
2546;SDS011;1283;47.982;7.834;2023-04-01T07:13:14;2.63;;;0.52;;
2546;SDS011;1283;47.982;7.834;2023-04-01T07:15:54;4.93;;;1.20;;
2546;SDS011;1283;47.982;7.834;2023-04-01T07:18:23;6.57;;;1.48;;
2546;SDS011;1283;47.982;7.834;2023-04-01T07:20:55;2.72;;;0.50;;
2546;SDS011;1283;47.982;7.834;2023-04-01T07:23:22;3.08;;;0.88;;
2546;SDS011;1283;47.982;7.834;2023-04-01T07:25:51;4.10;;;0.60;;
2546;SDS011;1283;47.982;7.834;2023-04-01T07:28:20;4.07;;;0.80;;
2546;SDS011;1283;47.982;7.834;2023-04-01T07:30:49;2.78;;;0.90;;
2546;SDS011;1283;47.982;7.834;2023-04-01T07:33:19;3.08;;;0.57;;
2546;SDS011;1283;47.982;7.834;2023-04-01T07:35:50;5.35;;;0.70;;
2546;SDS011;1283;47.982;7.834;2023-04-01T07:38:22;5.72;;;0.60;;
2546;SDS011;1283;47.982;7.834;2023-04-01T07:40:55;3.20;;;1.00;;
2546;SDS011;1283;47.982;7.834;2023-04-01T07:43:37;3.30;;;0.88;;
2546;SDS011;1283;47.982;7.834;2023-04-01T07:46:11;2.78;;;0.73;;
2546;SDS011;1283;47.982;7.834;2023-04-01T07:48:46;9.25;;;1.20;;
2546;SDS011;1283;47.982;7.834;2023-04-01T07:51:17;3.65;;;0.68;;
2546;SDS011;1283;47.982;7.834;2023-04-01T07:53:47;1.63;;;0.65;;
2546;SDS011;1283;47.982;7.834;2023-04-01T07:56:18;4.22;;;0.52;;
2546;SDS011;1283;47.982;7.834;2023-04-01T07:58:51;5.05;;;0.80;;
2546;SDS011;1283;47.982;7.834;2023-04-01T08:01:27;5.05;;;1.00;;
2546;SDS011;1283;47.982;7.834;2023-04-01T08:04:03;4.03;;;0.63;;
2546;SDS011;1283;47.982;7.834;2023-04-01T08:06:42;3.75;;;1.10;;
2546;SDS011;1283;47.982;7.834;2023-04-01T08:09:13;3.75;;;0.60;;
2546;SDS011;1283;47.982;7.834;2023-04-01T08:11:46;1.58;;;0.52;;
2546;SDS011;1283;47.982;7.834;2023-04-01T08:14:25;2.05;;;0.60;;
2546;SDS011;1283;47.982;7.834;2023-04-01T08:16:55;2.45;;;0.65;;
2546;SDS011;1283;47.982;7.834;2023-04-01T08:19:29;1.55;;;0.50;;
2546;SDS011;1283;47.982;7.834;2023-04-01T08:21:58;3.85;;;0.60;;
2546;SDS011;1283;47.982;7.834;2023-04-01T08:24:32;2.33;;;0.70;;
2546;SDS011;1283;47.982;7.834;2023-04-01T08:27:01;4.10;;;0.65;;
2546;SDS011;1283;47.982;7.834;2023-04-01T08:29:33;0.80;;;0.50;;
2546;SDS011;1283;47.982;7.834;2023-04-01T08:32:05;2.42;;;0.50;;
2546;SDS011;1283;47.982;7.834;2023-04-01T08:34:34;4.95;;;0.70;;
2546;SDS011;1283;47.982;7.834;2023-04-01T08:37:04;3.78;;;0.65;;
2546;SDS011;1283;47.982;7.834;2023-04-01T08:39:33;2.45;;;0.52;;
2546;SDS011;1283;47.982;7.834;2023-04-01T08:42:10;1.90;;;0.68;;
2546;SDS011;1283;47.982;7.834;2023-04-01T08:47:50;2.60;;;1.10;;
2546;SDS011;1283;47.982;7.834;2023-04-01T08:50:28;3.90;;;0.70;;
2546;SDS011;1283;47.982;7.834;2023-04-01T08:53:03;2.78;;;1.48;;
2546;SDS011;1283;47.982;7.834;2023-04-01T08:55:44;4.78;;;0.65;;
2546;SDS011;1283;47.982;7.834;2023-04-01T08:58:20;4.13;;;0.63;;
2546;SDS011;1283;47.982;7.834;2023-04-01T09:00:57;5.00;;;0.90;;
2546;SDS011;1283;47.982;7.834;2023-04-01T09:03:42;3.30;;;0.50;;
2546;SDS011;1283;47.982;7.834;2023-04-01T09:06:31;3.58;;;0.95;;
2546;SDS011;1283;47.982;7.834;2023-04-01T09:09:07;1.65;;;0.45;;
2546;SDS011;1283;47.982;7.834;2023-04-01T09:12:08;5.28;;;0.80;;
2546;SDS011;1283;47.982;7.834;2023-04-01T09:14:53;2.95;;;0.57;;
2546;SDS011;1283;47.982;7.834;2023-04-01T09:20:34;4.60;;;0.80;;
2546;SDS011;1283;47.982;7.834;2023-04-01T09:23:15;5.13;;;0.90;;
2546;SDS011;1283;47.982;7.834;2023-04-01T09:25:53;3.08;;;0.75;;
2546;SDS011;1283;47.982;7.834;2023-04-01T09:28:27;11.35;;;0.65;;
2546;SDS011;1283;47.982;7.834;2023-04-01T09:31:01;2.13;;;0.98;;
2546;SDS011;1283;47.982;7.834;2023-04-01T09:33:54;6.28;;;0.93;;
2546;SDS011;1283;47.982;7.834;2023-04-01T09:36:43;4.35;;;0.80;;
2546;SDS011;1283;47.982;7.834;2023-04-01T09:39:16;2.28;;;0.70;;
2546;SDS011;1283;47.982;7.834;2023-04-01T09:41:53;1.20;;;0.57;;
2546;SDS011;1283;47.982;7.834;2023-04-01T09:44:41;10.35;;;0.63;;
2546;SDS011;1283;47.982;7.834;2023-04-01T09:47:16;4.53;;;0.77;;
2546;SDS011;1283;47.982;7.834;2023-04-01T09:49:57;3.20;;;0.63;;
2546;SDS011;1283;47.982;7.834;2023-04-01T09:52:34;2.90;;;0.70;;
2546;SDS011;1283;47.982;7.834;2023-04-01T09:55:14;1.77;;;0.75;;
2546;SDS011;1283;47.982;7.834;2023-04-01T09:57:55;2.65;;;0.95;;
2546;SDS011;1283;47.982;7.834;2023-04-01T10:00:55;3.67;;;0.73;;
2546;SDS011;1283;47.982;7.834;2023-04-01T10:03:51;4.03;;;0.77;;
2546;SDS011;1283;47.982;7.834;2023-04-01T10:06:49;8.15;;;0.90;;
2546;SDS011;1283;47.982;7.834;2023-04-01T10:12:35;3.03;;;0.70;;
2546;SDS011;1283;47.982;7.834;2023-04-01T10:15:23;2.40;;;0.55;;
2546;SDS011;1283;47.982;7.834;2023-04-01T10:18:08;4.00;;;0.50;;
2546;SDS011;1283;47.982;7.834;2023-04-01T10:26:52;3.70;;;0.55;;
2546;SDS011;1283;47.982;7.834;2023-04-01T10:29:41;3.50;;;0.60;;
2546;SDS011;1283;47.982;7.834;2023-04-01T10:32:38;7.93;;;1.00;;
2546;SDS011;1283;47.982;7.834;2023-04-01T10:35:28;2.58;;;0.60;;
2546;SDS011;1283;47.982;7.834;2023-04-01T10:38:45;2.45;;;0.55;;
2546;SDS011;1283;47.982;7.834;2023-04-01T10:41:33;1.85;;;0.60;;
2546;SDS011;1283;47.982;7.834;2023-04-01T10:44:23;2.75;;;0.73;;
2546;SDS011;1283;47.982;7.834;2023-04-01T10:47:16;1.65;;;0.55;;
2546;SDS011;1283;47.982;7.834;2023-04-01T10:50:03;1.20;;;0.50;;
2546;SDS011;1283;47.982;7.834;2023-04-01T10:52:55;1.52;;;0.52;;
2546;SDS011;1283;47.982;7.834;2023-04-01T10:58:40;3.30;;;0.40;;
2546;SDS011;1283;47.982;7.834;2023-04-01T11:01:22;0.70;;;0.40;;
2546;SDS011;1283;47.982;7.834;2023-04-01T11:04:13;1.48;;;0.50;;
2546;SDS011;1283;47.982;7.834;2023-04-01T11:18:56;1.38;;;0.50;;
2546;SDS011;1283;47.982;7.834;2023-04-01T11:27:33;2.40;;;0.60;;
2546;SDS011;1283;47.982;7.834;2023-04-01T11:30:29;1.58;;;0.55;;
2546;SDS011;1283;47.982;7.834;2023-04-01T11:33:07;3.42;;;0.70;;
2546;SDS011;1283;47.982;7.834;2023-04-01T11:35:51;1.67;;;0.60;;
2546;SDS011;1283;47.982;7.834;2023-04-01T11:38:31;5.15;;;0.60;;
2546;SDS011;1283;47.982;7.834;2023-04-01T11:41:09;1.70;;;0.80;;
2546;SDS011;1283;47.982;7.834;2023-04-01T11:43:43;2.38;;;0.70;;
2546;SDS011;1283;47.982;7.834;2023-04-01T11:46:16;3.17;;;0.50;;
2546;SDS011;1283;47.982;7.834;2023-04-01T11:48:51;1.80;;;0.70;;
2546;SDS011;1283;47.982;7.834;2023-04-01T11:51:39;2.67;;;0.70;;
2546;SDS011;1283;47.982;7.834;2023-04-01T11:54:14;4.53;;;0.70;;
2546;SDS011;1283;47.982;7.834;2023-04-01T11:56:52;3.95;;;0.80;;
2546;SDS011;1283;47.982;7.834;2023-04-01T11:59:35;3.42;;;0.77;;
2546;SDS011;1283;47.982;7.834;2023-04-01T12:02:09;4.25;;;1.48;;
2546;SDS011;1283;47.982;7.834;2023-04-01T12:07:42;2.25;;;0.70;;
2546;SDS011;1283;47.982;7.834;2023-04-01T12:10:17;2.05;;;0.60;;
2546;SDS011;1283;47.982;7.834;2023-04-01T12:12:48;2.40;;;0.60;;
2546;SDS011;1283;47.982;7.834;2023-04-01T12:15:23;1.65;;;0.50;;
2546;SDS011;1283;47.982;7.834;2023-04-01T12:17:56;2.90;;;0.70;;
2546;SDS011;1283;47.982;7.834;2023-04-01T12:20:33;2.30;;;0.40;;
2546;SDS011;1283;47.982;7.834;2023-04-01T12:23:08;1.13;;;0.60;;
2546;SDS011;1283;47.982;7.834;2023-04-01T12:25:55;2.08;;;0.35;;
2546;SDS011;1283;47.982;7.834;2023-04-01T12:28:37;1.90;;;0.75;;
2546;SDS011;1283;47.982;7.834;2023-04-01T12:31:15;1.38;;;0.50;;
2546;SDS011;1283;47.982;7.834;2023-04-01T12:33:48;1.15;;;0.47;;
2546;SDS011;1283;47.982;7.834;2023-04-01T12:36:32;4.38;;;0.50;;
2546;SDS011;1283;47.982;7.834;2023-04-01T12:39:28;3.55;;;0.90;;
2546;SDS011;1283;47.982;7.834;2023-04-01T12:42:01;3.35;;;0.60;;
2546;SDS011;1283;47.982;7.834;2023-04-01T12:44:39;1.80;;;0.50;;
2546;SDS011;1283;47.982;7.834;2023-04-01T12:47:14;1.50;;;0.50;;
2546;SDS011;1283;47.982;7.834;2023-04-01T12:52:44;2.03;;;0.50;;
2546;SDS011;1283;47.982;7.834;2023-04-01T12:55:35;4.20;;;0.60;;
2546;SDS011;1283;47.982;7.834;2023-04-01T12:58:09;1.52;;;0.60;;
2546;SDS011;1283;47.982;7.834;2023-04-01T13:00:48;2.15;;;0.57;;
2546;SDS011;1283;47.982;7.834;2023-04-01T13:03:32;3.70;;;0.70;;
2546;SDS011;1283;47.982;7.834;2023-04-01T13:06:22;1.50;;;0.52;;
2546;SDS011;1283;47.982;7.834;2023-04-01T13:09:08;1.20;;;0.38;;
2546;SDS011;1283;47.982;7.834;2023-04-01T13:11:44;2.05;;;0.50;;
2546;SDS011;1283;47.982;7.834;2023-04-01T13:14:26;5.67;;;1.37;;
2546;SDS011;1283;47.982;7.834;2023-04-01T13:16:59;3.40;;;0.70;;
2546;SDS011;1283;47.982;7.834;2023-04-01T13:19:31;3.55;;;0.52;;
2546;SDS011;1283;47.982;7.834;2023-04-01T13:22:03;1.33;;;0.60;;
2546;SDS011;1283;47.982;7.834;2023-04-01T13:24:41;1.58;;;0.55;;
2546;SDS011;1283;47.982;7.834;2023-04-01T13:27:14;2.00;;;0.50;;
2546;SDS011;1283;47.982;7.834;2023-04-01T13:29:44;2.22;;;0.57;;
2546;SDS011;1283;47.982;7.834;2023-04-01T13:32:26;1.58;;;0.43;;
2546;SDS011;1283;47.982;7.834;2023-04-01T13:35:00;0.75;;;0.50;;
2546;SDS011;1283;47.982;7.834;2023-04-01T13:37:39;5.00;;;0.50;;
2546;SDS011;1283;47.982;7.834;2023-04-01T13:40:17;1.83;;;0.50;;
2546;SDS011;1283;47.982;7.834;2023-04-01T13:45:18;2.67;;;0.45;;
2546;SDS011;1283;47.982;7.834;2023-04-01T13:50:46;2.90;;;0.60;;
2546;SDS011;1283;47.982;7.834;2023-04-01T13:53:44;1.83;;;0.50;;
2546;SDS011;1283;47.982;7.834;2023-04-01T13:56:24;1.48;;;0.60;;
2546;SDS011;1283;47.982;7.834;2023-04-01T13:59:01;0.95;;;0.50;;
2546;SDS011;1283;47.982;7.834;2023-04-01T14:01:35;1.75;;;0.65;;
2546;SDS011;1283;47.982;7.834;2023-04-01T14:07:16;0.93;;;0.40;;
2546;SDS011;1283;47.982;7.834;2023-04-01T14:09:51;3.30;;;1.05;;
2546;SDS011;1283;47.982;7.834;2023-04-01T14:12:34;1.30;;;0.47;;
2546;SDS011;1283;47.982;7.834;2023-04-01T14:15:16;2.42;;;0.50;;
2546;SDS011;1283;47.982;7.834;2023-04-01T14:17:51;0.85;;;0.40;;
2546;SDS011;1283;47.982;7.834;2023-04-01T14:20:27;0.98;;;0.50;;
2546;SDS011;1283;47.982;7.834;2023-04-01T14:23:00;2.08;;;0.60;;
2546;SDS011;1283;47.982;7.834;2023-04-01T14:25:50;3.40;;;1.05;;
2546;SDS011;1283;47.982;7.834;2023-04-01T14:28:25;2.25;;;0.38;;
2546;SDS011;1283;47.982;7.834;2023-04-01T14:31:04;3.47;;;1.00;;
2546;SDS011;1283;47.982;7.834;2023-04-01T14:33:43;1.98;;;0.50;;
2546;SDS011;1283;47.982;7.834;2023-04-01T14:36:23;2.17;;;0.70;;
2546;SDS011;1283;47.982;7.834;2023-04-01T14:38:59;1.88;;;0.57;;
2546;SDS011;1283;47.982;7.834;2023-04-01T14:41:30;0.80;;;0.30;;
2546;SDS011;1283;47.982;7.834;2023-04-01T14:47:08;1.75;;;0.32;;
2546;SDS011;1283;47.982;7.834;2023-04-01T14:49:42;1.00;;;0.40;;
2546;SDS011;1283;47.982;7.834;2023-04-01T14:52:13;1.05;;;0.38;;
2546;SDS011;1283;47.982;7.834;2023-04-01T14:54:43;1.35;;;0.50;;
2546;SDS011;1283;47.982;7.834;2023-04-01T14:57:11;2.95;;;0.60;;
2546;SDS011;1283;47.982;7.834;2023-04-01T14:59:40;4.00;;;0.70;;
2546;SDS011;1283;47.982;7.834;2023-04-01T15:02:10;2.83;;;0.80;;
2546;SDS011;1283;47.982;7.834;2023-04-01T15:04:43;1.60;;;0.40;;
2546;SDS011;1283;47.982;7.834;2023-04-01T15:10:16;2.58;;;0.47;;
2546;SDS011;1283;47.982;7.834;2023-04-01T15:13:05;0.50;;;0.38;;
2546;SDS011;1283;47.982;7.834;2023-04-01T15:15:42;0.45;;;0.30;;
2546;SDS011;1283;47.982;7.834;2023-04-01T15:18:16;0.15;;;0.15;;
2546;SDS011;1283;47.982;7.834;2023-04-01T15:20:50;0.40;;;0.30;;
2546;SDS011;1283;47.982;7.834;2023-04-01T15:23:28;0.20;;;0.20;;
2546;SDS011;1283;47.982;7.834;2023-04-01T15:26:15;1.55;;;0.60;;
2546;SDS011;1283;47.982;7.834;2023-04-01T15:28:49;1.75;;;0.43;;
2546;SDS011;1283;47.982;7.834;2023-04-01T15:31:25;2.53;;;0.50;;
2546;SDS011;1283;47.982;7.834;2023-04-01T15:34:00;2.03;;;0.30;;
2546;SDS011;1283;47.982;7.834;2023-04-01T15:36:35;2.10;;;0.70;;
2546;SDS011;1283;47.982;7.834;2023-04-01T15:39:09;0.75;;;0.30;;
2546;SDS011;1283;47.982;7.834;2023-04-01T15:41:42;1.30;;;0.50;;
2546;SDS011;1283;47.982;7.834;2023-04-01T15:44:26;1.08;;;0.52;;
2546;SDS011;1283;47.982;7.834;2023-04-01T15:47:07;1.83;;;0.82;;
2546;SDS011;1283;47.982;7.834;2023-04-01T15:49:52;6.25;;;0.70;;
2546;SDS011;1283;47.982;7.834;2023-04-01T15:52:22;1.42;;;0.63;;
2546;SDS011;1283;47.982;7.834;2023-04-01T15:55:08;1.45;;;0.50;;
2546;SDS011;1283;47.982;7.834;2023-04-01T15:57:45;3.10;;;0.50;;
2546;SDS011;1283;47.982;7.834;2023-04-01T16:00:24;1.35;;;0.60;;
2546;SDS011;1283;47.982;7.834;2023-04-01T16:03:08;1.05;;;0.68;;
2546;SDS011;1283;47.982;7.834;2023-04-01T16:05:42;1.58;;;0.45;;
2546;SDS011;1283;47.982;7.834;2023-04-01T16:08:18;2.45;;;0.70;;
2546;SDS011;1283;47.982;7.834;2023-04-01T16:11:06;2.25;;;0.47;;
2546;SDS011;1283;47.982;7.834;2023-04-01T16:13:42;2.25;;;0.52;;
2546;SDS011;1283;47.982;7.834;2023-04-01T16:16:15;2.97;;;0.60;;
2546;SDS011;1283;47.982;7.834;2023-04-01T16:19:04;3.58;;;0.77;;
2546;SDS011;1283;47.982;7.834;2023-04-01T16:21:38;1.77;;;0.50;;
2546;SDS011;1283;47.982;7.834;2023-04-01T16:24:14;5.38;;;0.63;;
2546;SDS011;1283;47.982;7.834;2023-04-01T16:26:44;0.88;;;0.40;;
2546;SDS011;1283;47.982;7.834;2023-04-01T16:29:19;0.40;;;0.30;;
2546;SDS011;1283;47.982;7.834;2023-04-01T16:31:52;0.60;;;0.40;;
2546;SDS011;1283;47.982;7.834;2023-04-01T16:34:27;1.80;;;0.60;;
2546;SDS011;1283;47.982;7.834;2023-04-01T16:36:59;0.77;;;0.50;;
2546;SDS011;1283;47.982;7.834;2023-04-01T16:39:32;1.58;;;0.95;;
2546;SDS011;1283;47.982;7.834;2023-04-01T16:44:53;0.80;;;0.50;;
2546;SDS011;1283;47.982;7.834;2023-04-01T16:47:21;1.60;;;0.68;;
2546;SDS011;1283;47.982;7.834;2023-04-01T16:49:56;1.77;;;0.75;;
2546;SDS011;1283;47.982;7.834;2023-04-01T16:52:34;3.78;;;0.60;;
2546;SDS011;1283;47.982;7.834;2023-04-01T16:55:12;3.70;;;0.60;;
2546;SDS011;1283;47.982;7.834;2023-04-01T16:57:43;2.10;;;0.60;;
2546;SDS011;1283;47.982;7.834;2023-04-01T17:00:15;2.70;;;0.70;;